Time;durP1;ratioP1;P1;durP2;ratioP2;P2;SDS_P1;SDS_P2;PMS_P1;PMS_P2;Temp;Humidity;BMP_temperature;BMP_pressure;BME280_temperature;BME280_humidity;BME280_pressure;Samples;Min_cycle;Max_cycle;Signal;HPM_P1;HPM_P2
2021/01/23 00:02:17;;;;;;;27.15;15.25;;;;;;;4.22;72.61;97900.19;5053445;28;20064;-80
2021/01/23 00:04:43;;;;;;;31.42;15.85;;;;;;;4.21;72.99;97899.34;5053513;28;20045;-80
2021/01/23 00:07:10;;;;;;;27.27;16.00;;;;;;;4.22;72.71;97900.19;5053519;28;20095;-80
2021/01/23 00:09:36;;;;;;;28.20;15.50;;;;;;;4.21;72.96;97898.50;5053459;28;20178;-80
2021/01/23 00:12:03;;;;;;;28.73;15.70;;;;;;;4.21;72.60;97898.50;5053169;28;20044;-80
2021/01/23 00:14:29;;;;;;;24.73;14.90;;;;;;;4.21;72.74;97899.34;5035777;28;20075;-79
2021/01/23 00:16:55;;;;;;;29.23;15.32;;;;;;;4.21;72.67;97895.88;5053321;28;20059;-80
2021/01/23 00:19:22;;;;;;;26.95;15.57;;;;;;;4.22;73.13;97889.78;5053309;28;20164;-80
2021/01/23 00:21:48;;;;;;;30.70;16.52;;;;;;;4.22;72.79;97889.78;5052927;28;20501;-80
2021/01/23 00:24:14;;;;;;;29.65;14.25;;;;;;;4.21;72.72;97886.31;5035214;28;20413;-81
2021/01/23 00:26:44;;;;;;;26.90;15.13;;;;;;;4.22;72.77;97884.56;5053276;28;20110;-80
2021/01/23 00:29:13;;;;;;;28.58;15.93;;;;;;;4.23;72.65;97887.06;5053074;28;20053;-80
2021/01/23 00:31:40;;;;;;;26.50;16.05;;;;;;;4.23;72.64;97876.63;5035494;28;20508;-80
2021/01/23 00:34:08;;;;;;;28.52;16.38;;;;;;;4.22;72.62;97877.56;5052759;28;20098;-80
2021/01/23 00:36:34;;;;;;;28.45;16.40;;;;;;;4.21;72.32;97873.28;5055039;28;20049;-80
2021/01/23 00:39:03;;;;;;;30.23;15.40;;;;;;;4.20;72.44;97876.00;5057334;28;20059;-80
2021/01/23 00:41:29;;;;;;;26.30;15.40;;;;;;;4.19;72.55;97885.59;5039373;28;20110;-80
2021/01/23 00:43:56;;;;;;;23.15;14.95;;;;;;;4.19;72.91;97877.78;5056900;28;20452;-80
2021/01/23 00:46:22;;;;;;;26.70;15.52;;;;;;;4.17;72.97;97880.47;5057137;28;20497;-80
2021/01/23 00:48:49;;;;;;;30.25;16.48;;;;;;;4.18;72.84;97878.69;5057086;28;20045;-81
2021/01/23 00:51:15;;;;;;;34.85;15.98;;;;;;;4.19;72.77;97880.38;5057096;28;20061;-80
2021/01/23 00:53:41;;;;;;;27.00;16.05;;;;;;;4.17;72.87;97875.25;5056714;28;20521;-80
2021/01/23 00:56:08;;;;;;;27.98;16.50;;;;;;;4.17;73.10;97877.03;5057002;28;20049;-80
2021/01/23 00:58:34;;;;;;;28.88;16.50;;;;;;;4.17;72.81;97871.81;5056817;28;20072;-80
2021/01/23 01:01:00;;;;;;;28.00;16.27;;;;;;;4.16;72.54;97870.97;5056865;28;20107;-80
2021/01/23 01:03:27;;;;;;;25.65;15.73;;;;;;;4.17;72.68;97871.81;5056759;28;20053;-80
2021/01/23 01:05:53;;;;;;;28.48;15.93;;;;;;;4.15;73.04;97869.28;5056821;28;20060;-80
2021/01/23 01:08:19;;;;;;;25.80;15.05;;;;;;;4.15;72.63;97868.47;5056848;28;20394;-80
2021/01/23 01:10:45;;;;;;;33.10;16.15;;;;;;;4.15;73.02;97876.28;5056487;28;20083;-81
2021/01/23 01:13:13;;;;;;;26.90;14.65;;;;;;;4.15;72.75;97878.91;5038921;28;20045;-80
2021/01/23 01:15:41;;;;;;;26.15;15.73;;;;;;;4.14;72.65;97867.63;5056574;28;20052;-80
2021/01/23 01:18:07;;;;;;;34.03;15.60;;;;;;;4.16;72.78;97870.97;5056613;28;20052;-80
2021/01/23 01:20:35;;;;;;;29.25;14.85;;;;;;;4.17;72.96;97872.66;5056363;28;20049;-80
2021/01/23 01:23:01;;;;;;;29.60;16.42;;;;;;;4.18;73.11;97878.69;5038883;28;20413;-81
2021/01/23 01:25:27;;;;;;;26.13;14.73;;;;;;;4.19;72.67;97885.59;5056162;28;20041;-81
2021/01/23 01:27:54;;;;;;;26.75;15.85;;;;;;;4.19;72.56;97893.41;5056381;28;20053;-81
2021/01/23 01:30:22;;;;;;;27.05;16.42;;;;;;;4.19;72.51;97884.75;5056082;28;20051;-81
2021/01/23 01:32:48;;;;;;;27.27;16.08;;;;;;;4.19;72.67;97889.94;5056277;28;20049;-80
2021/01/23 01:35:14;;;;;;;28.08;15.77;;;;;;;4.17;72.27;97896.09;5056031;28;20056;-81
2021/01/23 01:37:40;;;;;;;26.38;15.93;;;;;;;4.15;72.41;97894.53;5056274;28;20409;-81
2021/01/23 01:40:07;;;;;;;25.63;15.20;;;;;;;4.11;72.21;97893.03;5055943;28;20106;-81
2021/01/23 01:42:34;;;;;;;30.88;16.13;;;;;;;4.07;72.23;97891.53;5055943;28;20045;-81
2021/01/23 01:45:00;;;;;;;27.90;16.30;;;;;;;4.03;72.06;97898.69;5038394;28;20095;-81
2021/01/23 01:47:26;;;;;;;32.38;16.92;;;;;;;3.98;72.25;97903.31;5056120;28;20057;-80
2021/01/23 01:49:55;;;;;;;24.83;15.98;;;;;;;3.92;72.19;97904.53;5055913;28;20049;-80
2021/01/23 01:52:21;;;;;;;32.92;18.20;;;;;;;3.88;72.40;97901.28;5055734;28;20048;-80
2021/01/23 01:54:50;;;;;;;29.95;16.92;;;;;;;3.83;72.41;97905.06;5055901;28;20417;-80
2021/01/23 01:57:21;;;;;;;28.95;18.13;;;;;;;3.76;72.59;97905.47;5055927;28;20056;-80
2021/01/23 01:59:48;;;;;;;31.58;17.30;;;;;;;3.74;72.79;97907.28;5038105;28;20099;-80
2021/01/23 02:02:33;;;;;;;31.08;17.15;;;;;;;3.69;72.44;97908.50;5038078;28;20053;-80
2021/01/23 02:05:04;;;;;;;28.17;16.67;;;;;;;3.67;72.92;97905.16;5055702;28;20053;-80
2021/01/23 02:07:45;;;;;;;34.05;17.00;;;;;;;3.62;72.65;97910.63;5055677;28;20056;-80
2021/01/23 02:10:24;;;;;;;29.20;17.00;;;;;;;3.59;72.64;97909.03;5055641;28;20057;-80
2021/01/23 02:12:52;;;;;;;29.52;17.13;;;;;;;3.59;72.79;97903.00;5055680;28;20114;-81
2021/01/23 02:15:23;;;;;;;29.60;16.95;;;;;;;3.58;72.97;97906.50;5037664;28;20049;-81
2021/01/23 02:18:03;;;;;;;25.95;16.80;;;;;;;3.54;73.06;97910.25;5047700;28;20045;-80
2021/01/23 02:21:12;;;;;;;28.17;17.25;;;;;;;3.52;73.11;97916.34;5037710;28;20425;-81
2021/01/23 02:23:45;;;;;;;26.75;16.85;;;;;;;3.51;73.57;97919.88;5055093;28;20049;-80
2021/01/23 02:26:14;;;;;;;26.92;15.45;;;;;;;3.51;73.48;97919.88;5055449;28;20485;-80
2021/01/23 02:29:13;;;;;;;28.10;16.63;;;;;;;3.48;73.52;97925.25;5055292;28;20053;-81
2021/01/23 02:31:41;;;;;;;34.90;17.40;;;;;;;3.50;73.47;97917.38;5037770;28;20052;-81
2021/01/23 02:34:10;;;;;;;30.30;16.98;;;;;;;3.49;73.73;97916.56;5055289;28;20095;-81
2021/01/23 02:36:39;;;;;;;25.42;15.18;;;;;;;3.50;73.58;97910.41;5037475;28;20463;-80
2021/01/23 02:39:07;;;;;;;29.27;15.63;;;;;;;3.52;73.54;97912.94;5055161;28;20049;-80
2021/01/23 02:41:34;;;;;;;31.30;17.70;;;;;;;3.54;73.67;97920.66;5054751;28;20083;-80
2021/01/23 02:44:00;;;;;;;29.33;15.95;;;;;;;3.55;73.66;97911.91;5054575;28;20045;-81
2021/01/23 02:46:26;;;;;;;32.25;17.27;;;;;;;3.57;73.43;97910.06;5054725;28;20544;-80
2021/01/23 02:48:53;;;;;;;31.85;17.02;;;;;;;3.57;73.32;97904.84;5037118;28;20084;-81
2021/01/23 02:51:43;;;;;;;31.77;17.17;;;;;;;3.55;73.68;97904.09;5054559;28;20049;-81
2021/01/23 02:54:17;;;;;;;29.98;16.60;;;;;;;3.55;73.85;97912.72;5054412;28;20051;-80
2021/01/23 02:56:45;;;;;;;25.48;16.42;;;;;;;3.57;73.56;97907.44;5054828;28;20056;-80
2021/01/23 02:59:13;;;;;;;24.52;14.48;;;;;;;3.56;73.67;97914.44;5054231;28;20048;-80
2021/01/23 03:01:42;;;;;;;24.63;15.63;;;;;;;3.56;73.51;97908.38;5054614;28;20056;-80
2021/01/23 03:04:09;;;;;;;28.35;15.45;;;;;;;3.55;73.76;97909.31;5036855;28;20044;-80
2021/01/23 03:06:39;;;;;;;28.73;15.10;;;;;;;3.56;73.78;97903.19;5036906;28;20102;-80
2021/01/23 03:09:21;;;;;;;23.42;13.60;;;;;;;3.54;73.08;97905.03;5054530;28;20075;-80
2021/01/23 03:11:48;;;;;;;21.90;13.07;;;;;;;3.59;73.83;97908.22;5054327;28;20049;-81
2021/01/23 03:14:16;;;;;;;24.63;14.35;;;;;;;3.60;73.48;97909.88;5054072;28;20687;-81
2021/01/23 03:16:50;;;;;;;29.17;15.98;;;;;;;3.60;73.39;97915.09;5054288;28;20048;-80
2021/01/23 03:19:17;;;;;;;25.30;14.32;;;;;;;3.62;73.18;97911.47;5054085;28;20049;-80
2021/01/23 03:21:47;;;;;;;26.27;14.88;;;;;;;3.61;73.47;97914.16;5053774;28;20052;-80
2021/01/23 03:24:14;;;;;;;26.17;13.82;;;;;;;3.60;73.32;97913.34;5053192;28;20045;-80
2021/01/23 03:26:40;;;;;;;21.98;13.70;;;;;;;3.60;73.44;97918.53;5053330;28;20102;-80
2021/01/23 03:29:06;;;;;;;27.88;14.90;;;;;;;3.61;73.78;97916.75;5053996;28;20049;-81
2021/01/23 03:31:33;;;;;;;27.02;14.68;;;;;;;3.60;73.61;97915.09;5036219;28;20049;-80
2021/01/23 03:34:00;;;;;;;27.00;15.00;;;;;;;3.59;73.18;97918.63;5053988;28;20045;-80
2021/01/23 03:36:26;;;;;;;28.35;13.65;;;;;;;3.58;73.30;97916.91;5036002;28;20110;-81
2021/01/23 03:38:52;;;;;;;20.00;13.27;;;;;;;3.58;73.72;97909.13;5054039;28;20053;-80
2021/01/23 03:41:18;;;;;;;22.33;13.35;;;;;;;3.58;73.86;97911.72;5053784;28;20053;-80
2021/01/23 03:43:44;;;;;;;24.48;13.27;;;;;;;3.58;73.59;97915.16;5053782;28;20103;-80
2021/01/23 03:46:11;;;;;;;20.40;12.88;;;;;;;3.59;73.44;97903.00;5053827;28;20052;-80
2021/01/23 03:48:37;;;;;;;24.02;13.15;;;;;;;3.59;73.51;97909.03;5053870;28;20049;-80
2021/01/23 03:51:04;;;;;;;21.10;12.07;;;;;;;3.60;73.45;97897.72;5053784;28;20049;-80
2021/01/23 03:53:31;;;;;;;22.10;12.10;;;;;;;3.60;73.81;97897.72;5053773;28;20052;-81
2021/01/23 03:55:58;;;;;;;21.23;12.13;;;;;;;3.61;73.38;97894.19;5053800;28;20041;-81
2021/01/23 03:58:24;;;;;;;21.58;12.55;;;;;;;3.61;73.53;97885.53;5053486;28;20053;-80
2021/01/23 04:00:50;;;;;;;21.25;12.05;;;;;;;3.61;73.59;97883.78;5053631;28;20045;-80
2021/01/23 04:03:17;;;;;;;18.95;11.07;;;;;;;3.62;73.25;97877.63;5053451;28;20094;-80
2021/01/23 04:05:43;;;;;;;23.52;11.70;;;;;;;3.63;73.32;97873.28;5053590;28;20041;-80
2021/01/23 04:08:09;;;;;;;20.73;11.15;;;;;;;3.63;73.77;97874.09;5035917;28;20135;-80
2021/01/23 04:10:36;;;;;;;18.20;10.63;;;;;;;3.64;73.38;97870.59;5052345;28;20083;-80
2021/01/23 04:13:03;;;;;;;23.23;12.02;;;;;;;3.65;73.65;97871.41;5053132;28;20056;-80
2021/01/23 04:15:29;;;;;;;23.55;11.23;;;;;;;3.64;73.53;97874.94;5053480;28;20067;-80
2021/01/23 04:17:55;;;;;;;20.52;10.90;;;;;;;3.65;73.20;97868.81;5053383;28;20052;-80
2021/01/23 04:20:22;;;;;;;18.73;10.50;;;;;;;3.65;73.76;97867.06;5093548;22;20045;-87
2021/01/23 04:22:48;;;;;;;19.63;10.77;;;;;;;3.67;73.44;97866.97;5054293;28;20444;-88
2021/01/23 04:25:15;;;;;;;19.85;10.93;;;;;;;3.69;73.26;97862.50;5054180;28;20041;-88
2021/01/23 04:27:41;;;;;;;18.17;10.35;;;;;;;3.70;73.65;97864.16;5054513;28;20421;-88
2021/01/23 04:30:09;;;;;;;21.20;10.30;;;;;;;3.70;73.56;97863.34;5054344;28;20049;-88
2021/01/23 04:32:36;;;;;;;18.85;9.90;;;;;;;3.69;73.14;97862.50;5037473;28;20049;-88
2021/01/23 04:35:09;;;;;;;19.35;11.10;;;;;;;3.68;72.78;97863.44;5036995;28;20052;-87
2021/01/23 04:37:39;;;;;;;20.65;10.90;;;;;;;3.69;72.69;97861.66;5054919;28;20079;-88
2021/01/23 04:40:07;;;;;;;21.70;10.90;;;;;;;3.68;73.22;97863.44;5054482;28;20049;-87
2021/01/23 04:42:34;;;;;;;22.70;11.85;;;;;;;3.68;73.28;97871.25;5054723;28;20057;-88
2021/01/23 04:45:01;;;;;;;21.80;11.43;;;;;;;3.67;73.17;97863.53;5036635;28;20045;-88
2021/01/23 04:47:28;;;;;;;20.42;11.18;;;;;;;3.66;73.46;97862.66;5054333;28;20049;-88
2021/01/23 04:49:54;;;;;;;19.83;10.80;;;;;;;3.66;73.07;97860.06;5054516;28;20409;-87
2021/01/23 04:52:20;;;;;;;21.30;11.32;;;;;;;3.65;73.39;97851.44;5035920;28;20444;-86
2021/01/23 04:54:47;;;;;;;20.90;11.63;;;;;;;3.67;73.33;97843.56;5035552;28;20056;-85
2021/01/23 04:57:13;;;;;;;23.15;10.38;;;;;;;3.67;73.53;97843.56;5053433;28;20060;-86
2021/01/23 04:59:39;;;;;;;18.95;10.90;;;;;;;3.69;73.12;97836.47;5035601;28;20075;-86
2021/01/23 05:02:14;;;;;;;19.73;11.07;;;;;;;3.68;73.10;97841.78;5035509;28;20456;-86
2021/01/23 05:07:26;;;;;;;18.98;11.50;;;;;;;3.71;73.06;97842.44;5053149;28;20107;-86
2021/01/23 05:09:53;;;;;;;24.33;11.75;;;;;;;3.72;73.29;97836.31;5035305;28;20110;-86
2021/01/23 05:12:36;;;;;;;21.08;11.98;;;;;;;3.70;72.82;97835.53;5035287;28;20045;-86
2021/01/23 05:15:04;;;;;;;;;;;;;;;3.73;72.82;97827.56;5053800;28;20489;-86
2021/01/23 05:17:30;;;;;;;17.35;10.15;;;;;;;3.77;73.47;97829.06;5053056;28;19921;-87
2021/01/23 05:19:56;;;;;;;22.58;11.02;;;;;;;3.79;73.69;97828.97;5035445;28;20131;-87
2021/01/23 05:22:22;;;;;;;20.35;11.23;;;;;;;3.79;73.47;97823.75;5054517;28;20056;-86
2021/01/23 05:24:50;;;;;;;16.35;10.77;;;;;;;3.81;73.36;97819.28;5056722;28;20045;-86
2021/01/23 05:27:17;;;;;;;17.45;11.05;;;;;;;3.82;73.50;97810.56;5057506;28;20064;-86
2021/01/23 05:29:59;;;;;;;18.92;9.95;;;;;;;3.82;73.14;97814.91;5056508;28;20044;-86
2021/01/23 05:32:26;;;;;;;13.15;7.43;;;;;;;3.88;73.56;97801.53;5038608;28;20052;-87
2021/01/23 05:34:52;;;;;;;16.30;10.02;;;;;;;3.91;73.36;97798.75;5056421;28;20045;-87
2021/01/23 05:37:37;;;;;;;20.77;10.15;;;;;;;3.89;72.99;97796.22;5038404;28;20056;-86
2021/01/23 05:40:04;;;;;;;15.27;9.75;;;;;;;3.95;72.90;97794.16;5038752;28;20052;-87
2021/01/23 05:42:39;;;;;;;15.73;10.32;;;;;;;3.97;73.53;97792.31;5038578;28;20045;-86
2021/01/23 05:45:08;;;;;;;20.35;10.43;;;;;;;3.98;73.04;97791.38;5038444;28;20490;-86
2021/01/23 05:47:37;;;;;;;17.15;10.30;;;;;;;3.99;73.24;97793.06;5056553;28;20049;-86
2021/01/23 05:50:06;;;;;;;15.30;10.60;;;;;;;4.00;73.21;97792.97;5038590;28;20131;-86
2021/01/23 05:52:33;;;;;;;19.20;10.57;;;;;;;4.01;72.91;97794.63;5038492;28;20558;-86
2021/01/23 05:55:01;;;;;;;27.40;11.88;;;;;;;4.00;72.64;97798.16;5038764;28;20078;-85
2021/01/23 05:57:28;;;;;;;22.88;12.27;;;;;;;4.00;72.85;97803.38;5038450;28;20060;-86
2021/01/23 05:59:55;;;;;;;22.55;11.05;;;;;;;4.00;72.56;97810.38;5038393;28;20386;-86
2021/01/23 06:02:23;;;;;;;22.65;11.38;;;;;;;3.97;72.80;97808.78;5056494;28;20059;-86
2021/01/23 06:04:52;;;;;;;22.60;11.52;;;;;;;3.95;72.43;97810.63;5056148;28;20049;-86
2021/01/23 06:07:40;;;;;;;30.35;12.18;;;;;;;3.92;72.12;97818.63;5038467;28;20054;-86
2021/01/23 06:10:22;;;;;;;16.50;10.57;;;;;;;3.91;72.37;97810.00;5055784;28;20056;-86
2021/01/23 06:12:57;;;;;;;19.65;10.95;;;;;;;3.94;72.73;97806.38;5038141;28;20130;-87
2021/01/23 06:15:32;;;;;;;21.30;11.45;;;;;;;3.97;72.75;97805.34;5037750;28;20543;-87
2021/01/23 06:18:00;;;;;;;19.88;12.20;;;;;;;3.99;72.79;97806.06;5055451;28;20087;-88
2021/01/23 06:20:41;;;;;;;23.02;11.50;;;;;;;3.97;72.10;97811.41;5055287;28;20057;-87
2021/01/23 06:23:12;;;;;;;20.23;11.85;;;;;;;4.01;73.07;97812.84;5037315;28;20049;-87
2021/01/23 06:25:51;;;;;;;24.10;12.18;;;;;;;4.00;72.68;97815.56;5055363;28;20508;-87
2021/01/23 06:28:41;;;;;;;20.65;12.55;;;;;;;4.01;72.55;97806.81;5055341;28;20053;-87
2021/01/23 06:31:22;;;;;;;18.85;11.70;;;;;;;4.03;72.92;97813.59;5037353;28;20049;-88
2021/01/23 06:33:49;;;;;;;25.65;11.88;;;;;;;4.07;73.51;97808.22;5036493;28;20059;-87
2021/01/23 06:36:15;;;;;;;23.23;11.68;;;;;;;4.11;73.63;97817.53;5037303;28;20044;-87
2021/01/23 06:38:59;;;;;;;20.42;12.15;;;;;;;4.11;72.87;97813.13;5037426;28;20549;-88
2021/01/23 06:41:26;;;;;;;17.90;10.93;;;;;;;4.19;73.63;97811.81;5037390;28;20064;-88
2021/01/23 06:44:11;;;;;;;21.20;12.40;;;;;;;4.18;72.41;97813.59;5036984;28;20060;-88
2021/01/23 06:46:39;;;;;;;20.58;11.88;;;;;;;4.24;73.23;97810.63;5054899;28;20064;-87
2021/01/23 06:49:10;;;;;;;21.67;12.20;;;;;;;4.25;72.98;97817.50;5037256;28;20143;-87
2021/01/23 06:51:37;;;;;;;23.60;11.68;;;;;;;4.27;72.77;97815.59;5055403;28;20053;-87
2021/01/23 06:54:11;;;;;;;22.85;12.20;;;;;;;4.27;72.44;97820.81;5054729;28;20049;-87
2021/01/23 06:56:37;;;;;;;23.92;12.95;;;;;;;4.30;73.02;97818.03;5055026;28;20172;-86
2021/01/23 06:59:03;;;;;;;22.25;12.60;;;;;;;4.30;73.26;97805.00;5054793;28;20048;-85
2021/01/23 07:01:29;;;;;;;24.48;13.20;;;;;;;4.33;72.97;97813.56;5036752;28;20048;-86
2021/01/23 07:03:55;;;;;;;20.35;12.98;;;;;;;4.34;72.97;97810.03;5037101;28;20053;-86
2021/01/23 07:06:29;;;;;;;22.00;13.45;;;;;;;4.33;72.53;97816.19;5054842;28;20107;-86
2021/01/23 07:08:56;;;;;;;24.17;13.45;;;;;;;4.34;73.05;97810.84;5037333;28;20053;-87
2021/01/23 07:11:22;;;;;;;22.58;12.23;;;;;;;4.36;72.96;97810.75;5037040;28;20052;-87
2021/01/23 07:14:18;;;;;;;25.40;12.38;;;;;;;4.34;71.63;97816.06;5036651;28;20049;-88
2021/01/23 07:17:52;;;;;;;20.05;12.00;;;;;;;4.36;71.76;97808.16;4938221;29;20055;-89
2021/01/23 07:20:42;;;;;;;20.40;11.85;;;;;;;4.42;72.72;97818.19;4994249;28;20052;-89
2021/01/23 07:23:08;;;;;;;24.63;12.38;;;;;;;4.41;72.62;97827.78;5053723;28;20524;-89
2021/01/23 07:25:36;;;;;;;21.35;11.90;;;;;;;4.42;72.67;97818.19;5036731;28;20049;-88
2021/01/23 07:28:11;;;;;;;24.63;13.07;;;;;;;4.39;71.62;97824.44;5054108;28;20057;-88
2021/01/23 07:30:37;;;;;;;24.10;13.00;;;;;;;4.42;72.57;97824.22;5036256;28;20433;-88
2021/01/23 07:33:04;;;;;;;22.65;12.02;;;;;;;4.43;72.54;97822.47;5053765;28;20135;-88
2021/01/23 07:35:37;;;;;;;20.88;11.70;;;;;;;4.42;71.73;97823.41;5036463;28;20067;-89
2021/01/23 07:38:05;;;;;;;24.00;13.27;;;;;;;4.45;72.73;97827.59;5036209;28;20056;-89
2021/01/23 07:40:39;;;;;;;24.40;13.10;;;;;;;4.44;72.18;97821.53;5036154;28;20515;-89
2021/01/23 07:43:06;;;;;;;21.30;12.90;;;;;;;4.46;72.13;97822.28;5035874;28;20408;-89
2021/01/23 07:45:38;;;;;;;22.50;12.57;;;;;;;4.44;72.14;97821.53;5035976;28;20067;-88
2021/01/23 07:48:11;;;;;;;27.05;12.75;;;;;;;4.42;71.92;97821.63;5036078;28;20508;-86
2021/01/23 07:50:46;;;;;;;19.42;12.23;;;;;;;4.44;72.12;97821.53;5053777;28;20111;-86
2021/01/23 07:53:22;;;;;;;23.83;12.57;;;;;;;4.43;71.87;97822.47;5036256;28;20067;-86
2021/01/23 07:55:52;;;;;;;22.33;11.60;;;;;;;4.43;72.36;97818.13;5036758;28;20429;-86
2021/01/23 07:58:18;;;;;;;21.27;11.55;;;;;;;4.42;72.69;97813.81;5035935;28;20523;-86
2021/01/23 08:00:46;;;;;;;23.75;12.10;;;;;;;4.42;72.71;97813.00;5035877;28;20132;-86
2021/01/23 08:03:15;;;;;;;25.35;12.80;;;;;;;4.38;72.68;97816.72;5035776;28;20136;-86
2021/01/23 08:05:50;;;;;;;22.25;11.60;;;;;;;4.37;72.59;97815.06;5035734;28;20063;-86
2021/01/23 08:08:38;;;;;;;22.70;11.65;;;;;;;4.37;72.39;97820.28;5035894;28;20060;-85
2021/01/23 08:11:06;;;;;;;27.25;13.20;;;;;;;4.39;72.67;97821.84;5035930;28;20059;-86
2021/01/23 08:13:34;;;;;;;24.33;12.18;;;;;;;4.39;72.71;97815.78;5035903;28;20513;-86
2021/01/23 08:16:14;;;;;;;22.63;12.63;;;;;;;4.37;72.56;97815.06;5035707;28;20076;-86
2021/01/23 08:18:42;;;;;;;22.48;12.10;;;;;;;4.38;73.04;97811.50;5036015;28;20045;-86
2021/01/23 08:21:19;;;;;;;24.45;12.73;;;;;;;4.35;72.54;97809.09;5035285;28;20052;-86
2021/01/23 08:23:46;;;;;;;20.02;11.68;;;;;;;4.36;72.79;97809.00;5052852;28;20053;-86
2021/01/23 08:26:38;;;;;;;23.50;12.15;;;;;;;4.35;72.81;97812.53;5034933;28;20076;-87
2021/01/23 08:29:19;;;;;;;20.83;11.27;;;;;;;4.34;73.15;97803.03;5010859;28;20065;-88
2021/01/23 08:32:55;;;;;;;22.00;12.75;;;;;;;4.31;72.64;97811.06;5052629;28;20103;-88
2021/01/23 08:39:17;;;;;;;21.98;12.00;;;;;;;4.30;73.05;97815.44;5053125;28;20102;-88
2021/01/23 08:41:43;;;;;;;;;;;;;;;4.35;72.37;97814.31;5035271;28;20135;-88
2021/01/23 08:44:21;;;;;;;23.10;11.63;;;;;;;4.36;73.19;97824.63;5034656;28;19927;-89
2021/01/23 08:50:14;;;;;;;20.40;11.18;;;;;;;4.37;73.28;97820.28;5051822;28;20140;-88
2021/01/23 08:52:46;;;;;;;20.98;12.27;;;;;;;4.40;73.87;97827.88;5035582;28;20052;-88
2021/01/23 08:55:21;;;;;;;23.05;11.25;;;;;;;4.41;73.62;97819.16;5035931;28;20048;-88
2021/01/23 08:57:58;;;;;;;21.30;10.60;;;;;;;4.42;73.83;97821.63;5036911;28;20142;-89
2021/01/23 09:00:38;;;;;;;19.38;11.27;;;;;;;4.46;73.44;97818.84;5038130;28;20049;-89
2021/01/23 09:03:30;;;;;;;18.58;11.15;;;;;;;4.48;73.36;97823.00;5038149;28;20052;-88
2021/01/23 09:05:59;;;;;;;18.90;11.27;;;;;;;4.54;73.74;97830.47;5038212;28;20055;-88
2021/01/23 09:09:13;;;;;;;18.27;10.27;;;;;;;4.54;73.34;97819.19;5037911;28;20052;-88
2021/01/23 09:11:46;;;;;;;18.58;10.93;;;;;;;4.60;74.18;97802.34;4978741;28;20489;-89
2021/01/23 09:14:13;;;;;;;15.82;10.10;;;;;;;4.64;74.07;97801.19;5037836;28;20131;-88
2021/01/23 09:16:39;;;;;;;17.80;9.10;;;;;;;4.69;74.12;97799.97;5038097;28;20053;-89
2021/01/23 09:19:18;;;;;;;17.45;10.43;;;;;;;4.74;74.13;97807.47;5039252;28;20048;-89
2021/01/23 09:21:47;;;;;;;18.35;9.60;;;;;;;4.81;74.23;97808.75;5015741;28;735143;-90
2021/01/23 09:24:30;;;;;;;16.50;10.05;;;;;;;4.87;74.06;97804.94;5035934;28;20049;-90
2021/01/23 09:27:01;;;;;;;16.77;10.30;;;;;;;4.92;74.30;97794.19;5042213;28;20132;-90
2021/01/23 09:29:33;;;;;;;18.75;10.23;;;;;;;4.98;74.15;97792.94;5039571;28;20053;-89
2021/01/23 09:32:08;;;;;;;19.17;9.75;;;;;;;5.03;73.95;97798.69;5038715;28;20057;-88
2021/01/23 09:34:41;;;;;;;14.02;8.88;;;;;;;5.12;74.49;97790.25;5038754;28;20136;-89
2021/01/23 09:37:43;;;;;;;15.27;9.77;;;;;;;5.18;74.19;97800.31;5039476;28;20053;-88
2021/01/23 09:40:22;;;;;;;15.40;8.80;;;;;;;5.26;74.15;97797.16;5038840;28;20079;-89
2021/01/23 09:42:59;;;;;;;14.75;8.77;;;;;;;5.28;73.35;97795.31;5038746;28;20048;-88
2021/01/23 09:46:00;;;;;;;19.50;9.32;;;;;;;5.34;73.07;97800.09;5040241;28;20057;-89
2021/01/23 09:48:31;;;;;;;13.43;9.10;;;;;;;5.40;73.79;97792.78;5039918;28;20053;-88
2021/01/23 09:51:04;;;;;;;16.73;9.80;;;;;;;5.43;73.52;97797.81;5038229;28;20577;-89
2021/01/23 09:53:58;;;;;;;17.48;9.40;;;;;;;5.46;72.60;97800.22;5038269;28;20049;-88
2021/01/23 09:56:30;;;;;;;17.10;9.82;;;;;;;5.53;73.66;97804.06;5038209;28;20045;-89
2021/01/23 09:58:56;;;;;;;13.70;9.18;;;;;;;5.55;73.66;97793.53;5038267;28;20057;-88
2021/01/23 10:01:26;;;;;;;13.15;9.45;;;;;;;5.56;73.35;97798.66;5055662;28;20049;-89
2021/01/23 10:05:06;;;;;;;;;;;;;;;;;;;;;
2021/01/23 10:08:55;;;;;;;12.00;7.68;;;;;;;5.59;71.63;97803.66;4993667;28;20082;-88
2021/01/23 10:15:56;;;;;;;17.23;9.45;;;;;;;5.61;71.68;97807.00;4932305;29;20050;-88
2021/01/23 10:18:24;;;;;;;14.77;9.48;;;;;;;5.64;72.96;97807.75;4921999;29;20054;-89
2021/01/23 10:20:50;;;;;;;14.48;8.70;;;;;;;5.64;73.26;97805.13;4982511;23;20448;-83
2021/01/23 10:23:16;;;;;;;15.13;9.55;;;;;;;5.65;73.42;97806.81;5014299;28;20049;-80
2021/01/23 10:25:42;;;;;;;14.45;8.98;;;;;;;5.66;73.78;97798.03;5015582;28;20041;-80
2021/01/23 10:28:08;;;;;;;14.40;9.50;;;;;;;5.68;73.66;97799.59;5015772;28;20057;-80
2021/01/23 10:30:35;;;;;;;15.38;9.98;;;;;;;5.71;73.58;97795.91;5015589;28;20050;-80
2021/01/23 10:33:02;;;;;;;13.85;8.95;;;;;;;5.73;73.45;97805.31;5015376;28;20418;-80
2021/01/23 10:35:28;;;;;;;18.38;10.10;;;;;;;5.76;73.39;97796.47;5015611;28;20050;-80
2021/01/23 10:37:54;;;;;;;21.58;9.27;;;;;;;5.81;73.51;97798.75;5015545;28;20054;-80
2021/01/23 10:40:20;;;;;;;14.82;8.90;;;;;;;5.84;73.59;97801.97;5015276;28;20061;-80
2021/01/23 10:42:46;;;;;;;13.35;8.68;;;;;;;5.87;73.56;97796.53;5015165;28;20049;-80
2021/01/23 10:45:12;;;;;;;17.02;10.20;;;;;;;5.90;73.43;97798.09;5015233;28;20042;-80
2021/01/23 10:47:38;;;;;;;17.77;9.95;;;;;;;5.92;73.36;97793.63;5015325;28;20107;-80
2021/01/23 10:50:07;;;;;;;15.20;8.70;;;;;;;5.94;73.22;97796.13;5015185;28;20095;-80
2021/01/23 10:52:34;;;;;;;13.63;8.98;;;;;;;5.94;73.02;97799.56;5014944;28;20052;-80
2021/01/23 10:55:00;;;;;;;16.92;10.18;;;;;;;5.96;73.03;97796.84;5015131;28;20058;-80
2021/01/23 10:57:27;;;;;;;13.80;8.23;;;;;;;5.95;73.10;97792.56;5015020;28;20053;-80
2021/01/23 10:59:53;;;;;;;16.85;9.27;;;;;;;5.95;73.24;97803.03;5015022;28;20046;-80
2021/01/23 11:02:19;;;;;;;18.92;9.65;;;;;;;5.94;72.98;97791.72;5014705;28;20441;-80
2021/01/23 11:04:46;;;;;;;12.05;8.65;;;;;;;5.96;73.53;97789.00;5014958;28;20045;-80
2021/01/23 11:07:12;;;;;;;12.45;8.45;;;;;;;5.97;73.38;97793.28;5014929;28;20440;-80
2021/01/23 11:09:38;;;;;;;15.98;8.77;;;;;;;5.98;73.44;97787.97;5014918;28;20065;-80
2021/01/23 11:12:05;;;;;;;14.20;9.00;;;;;;;6.02;73.59;97778.13;5014566;28;20045;-80
2021/01/23 11:14:33;;;;;;;17.50;9.27;;;;;;;6.05;73.68;97783.16;5015063;28;20058;-80
2021/01/23 11:17:00;;;;;;;11.82;8.68;;;;;;;6.09;73.82;97787.22;5015393;28;20108;-80
2021/01/23 11:19:27;;;;;;;14.23;9.20;;;;;;;6.13;73.87;97788.69;5014372;28;20046;-80
2021/01/23 11:21:53;;;;;;;14.55;9.35;;;;;;;6.19;74.33;97781.34;5014190;28;20053;-79
2021/01/23 11:24:19;;;;;;;15.32;9.07;;;;;;;6.25;74.73;97779.13;5014565;28;20061;-81
2021/01/23 11:26:45;;;;;;;16.30;9.65;;;;;;;6.35;74.86;97792.38;5014745;28;20513;-80
2021/01/23 11:29:12;;;;;;;13.23;8.77;;;;;;;6.43;74.29;97777.94;5015278;28;20085;-82
2021/01/23 11:31:38;;;;;;;12.95;9.10;;;;;;;6.51;74.42;97768.59;5015052;28;20054;-80
2021/01/23 11:34:05;;;;;;;13.10;8.98;;;;;;;6.59;73.99;97773.28;5014708;28;20419;-81
2021/01/23 11:36:31;;;;;;;14.40;8.88;;;;;;;6.67;73.97;97774.50;5014749;28;20049;-79
2021/01/23 11:38:59;;;;;;;15.25;8.40;;;;;;;6.73;73.81;97768.81;5014760;28;20076;-79
2021/01/23 11:41:25;;;;;;;13.73;8.50;;;;;;;6.81;73.91;97765.63;5013277;28;20486;-79
2021/01/23 11:43:52;;;;;;;11.75;8.55;;;;;;;6.90;74.84;97765.81;5014596;28;20054;-80
2021/01/23 11:46:18;;;;;;;11.60;8.80;;;;;;;7.03;75.24;97754.44;5014357;28;20053;-80
2021/01/23 11:48:56;;;;;;;16.23;8.98;;;;;;;7.24;74.24;97754.59;5014362;28;20100;-79
2021/01/23 11:51:23;;;;;;;11.02;8.30;;;;;;;7.57;78.54;97752.13;5014327;28;20062;-79
2021/01/23 11:53:49;;;;;;;14.07;8.60;;;;;;;7.90;78.06;97745.22;5012635;28;20137;-80
2021/01/23 11:56:15;;;;;;;15.52;7.80;;;;;;;8.29;78.25;97760.50;5014094;28;20049;-80
2021/01/23 11:58:43;;;;;;;10.93;7.25;;;;;;;8.68;77.19;97752.19;5014203;28;20136;-80
2021/01/23 12:01:09;;;;;;;13.07;7.85;;;;;;;9.03;75.93;97749.41;5014029;28;20494;-80
2021/01/23 12:03:35;;;;;;;11.15;7.07;;;;;;;9.32;74.32;97741.75;5013539;28;20061;-80